sensor_id;sensor_type;location;lat;lon;timestamp;temperature;humidity
66422;DHT22;53228;51.380;0.098;2022-08-16T00:01:21;20.90;99.90
66422;DHT22;53228;51.380;0.098;2022-08-16T00:03:52;20.80;99.90
66422;DHT22;53228;51.380;0.098;2022-08-16T00:06:20;19.30;99.90
66422;DHT22;53228;51.380;0.098;2022-08-16T00:08:48;20.80;99.90
66422;DHT22;53228;51.380;0.098;2022-08-16T00:11:19;20.80;99.90
66422;DHT22;53228;51.380;0.098;2022-08-16T00:13:49;20.80;99.90
66422;DHT22;53228;51.380;0.098;2022-08-16T00:16:27;20.80;99.90
66422;DHT22;53228;51.380;0.098;2022-08-16T00:19:19;20.80;99.90
66422;DHT22;53228;51.380;0.098;2022-08-16T00:21:50;20.80;99.90
66422;DHT22;53228;51.380;0.098;2022-08-16T00:24:22;20.80;99.90
66422;DHT22;53228;51.380;0.098;2022-08-16T00:27:00;20.80;99.90
66422;DHT22;53228;51.380;0.098;2022-08-16T00:29:28;20.80;99.90
66422;DHT22;53228;51.380;0.098;2022-08-16T00:31:58;20.70;99.90
66422;DHT22;53228;51.380;0.098;2022-08-16T00:34:34;20.80;99.90
66422;DHT22;53228;51.380;0.098;2022-08-16T00:37:12;20.80;99.90
66422;DHT22;53228;51.380;0.098;2022-08-16T00:39:44;20.70;99.90
66422;DHT22;53228;51.380;0.098;2022-08-16T00:42:14;20.70;99.90
66422;DHT22;53228;51.380;0.098;2022-08-16T00:45:04;20.70;99.90
66422;DHT22;53228;51.380;0.098;2022-08-16T00:47:38;20.70;99.90
66422;DHT22;53228;51.380;0.098;2022-08-16T00:50:09;20.70;99.90
66422;DHT22;53228;51.380;0.098;2022-08-16T00:52:40;20.70;99.90
66422;DHT22;53228;51.380;0.098;2022-08-16T00:55:20;20.70;99.90
66422;DHT22;53228;51.380;0.098;2022-08-16T00:57:51;20.70;99.90
66422;DHT22;53228;51.380;0.098;2022-08-16T01:00:31;20.80;99.90
66422;DHT22;53228;51.380;0.098;2022-08-16T01:03:03;20.80;99.90
66422;DHT22;53228;51.380;0.098;2022-08-16T01:05:38;20.80;99.90
66422;DHT22;53228;51.380;0.098;2022-08-16T01:08:07;20.80;99.90
66422;DHT22;53228;51.380;0.098;2022-08-16T01:10:55;20.80;99.90
66422;DHT22;53228;51.380;0.098;2022-08-16T01:13:29;20.80;99.90
66422;DHT22;53228;51.380;0.098;2022-08-16T01:16:00;20.80;99.90
66422;DHT22;53228;51.380;0.098;2022-08-16T01:18:50;20.80;99.90
66422;DHT22;53228;51.380;0.098;2022-08-16T01:27:30;20.70;99.90
66422;DHT22;53228;51.380;0.098;2022-08-16T01:30:14;20.70;99.90
66422;DHT22;53228;51.380;0.098;2022-08-16T01:32:48;20.70;99.90
66422;DHT22;53228;51.380;0.098;2022-08-16T01:35:37;20.70;99.90
66422;DHT22;53228;51.380;0.098;2022-08-16T01:38:27;20.60;99.90
66422;DHT22;53228;51.380;0.098;2022-08-16T01:40:58;20.60;99.90
66422;DHT22;53228;51.380;0.098;2022-08-16T01:43:31;20.60;99.90
66422;DHT22;53228;51.380;0.098;2022-08-16T01:46:03;20.60;99.90
66422;DHT22;53228;51.380;0.098;2022-08-16T01:48:56;20.60;99.90
66422;DHT22;53228;51.380;0.098;2022-08-16T01:51:27;20.60;99.90
66422;DHT22;53228;51.380;0.098;2022-08-16T01:53:57;20.60;99.90
66422;DHT22;53228;51.380;0.098;2022-08-16T01:56:32;20.60;99.90
66422;DHT22;53228;51.380;0.098;2022-08-16T01:59:05;20.60;99.90
66422;DHT22;53228;51.380;0.098;2022-08-16T02:01:45;20.60;99.90
66422;DHT22;53228;51.380;0.098;2022-08-16T02:04:28;20.60;99.90
66422;DHT22;53228;51.380;0.098;2022-08-16T02:07:17;20.60;99.90
66422;DHT22;53228;51.380;0.098;2022-08-16T02:09:50;20.60;99.90
66422;DHT22;53228;51.380;0.098;2022-08-16T02:12:29;20.60;99.90
66422;DHT22;53228;51.380;0.098;2022-08-16T02:15:22;20.60;99.90
66422;DHT22;53228;51.380;0.098;2022-08-16T02:17:56;20.60;99.90
66422;DHT22;53228;51.380;0.098;2022-08-16T02:20:26;20.60;99.90
66422;DHT22;53228;51.380;0.098;2022-08-16T02:22:56;20.60;99.90
66422;DHT22;53228;51.380;0.098;2022-08-16T02:25:27;20.60;99.90
66422;DHT22;53228;51.380;0.098;2022-08-16T02:28:15;20.60;99.90
66422;DHT22;53228;51.380;0.098;2022-08-16T02:33:20;20.60;99.90
66422;DHT22;53228;51.380;0.098;2022-08-16T02:36:10;20.60;99.90
66422;DHT22;53228;51.380;0.098;2022-08-16T02:38:41;20.50;99.90
66422;DHT22;53228;51.380;0.098;2022-08-16T02:41:09;20.60;99.90
66422;DHT22;53228;51.380;0.098;2022-08-16T02:43:39;20.50;99.90
66422;DHT22;53228;51.380;0.098;2022-08-16T02:46:07;20.50;99.90
66422;DHT22;53228;51.380;0.098;2022-08-16T02:48:38;20.50;99.90
66422;DHT22;53228;51.380;0.098;2022-08-16T02:51:16;20.60;99.90
66422;DHT22;53228;51.380;0.098;2022-08-16T02:53:46;20.50;99.90
66422;DHT22;53228;51.380;0.098;2022-08-16T02:56:16;20.60;99.90
66422;DHT22;53228;51.380;0.098;2022-08-16T02:58:47;20.50;99.90
66422;DHT22;53228;51.380;0.098;2022-08-16T03:01:25;20.60;99.90
66422;DHT22;53228;51.380;0.098;2022-08-16T03:04:11;20.60;99.90
66422;DHT22;53228;51.380;0.098;2022-08-16T03:06:59;20.60;99.90
66422;DHT22;53228;51.380;0.098;2022-08-16T03:09:40;20.60;99.90
66422;DHT22;53228;51.380;0.098;2022-08-16T03:14:45;20.60;99.90
66422;DHT22;53228;51.380;0.098;2022-08-16T03:22:31;20.60;99.90
66422;DHT22;53228;51.380;0.098;2022-08-16T03:25:08;20.60;99.90
66422;DHT22;53228;51.380;0.098;2022-08-16T03:27:38;20.50;99.90
66422;DHT22;53228;51.380;0.098;2022-08-16T03:30:15;20.50;99.90
66422;DHT22;53228;51.380;0.098;2022-08-16T03:32:51;20.50;99.90
66422;DHT22;53228;51.380;0.098;2022-08-16T03:35:25;20.50;99.90
66422;DHT22;53228;51.380;0.098;2022-08-16T03:38:10;20.50;99.90
66422;DHT22;53228;51.380;0.098;2022-08-16T03:41:02;20.50;99.90
66422;DHT22;53228;51.380;0.098;2022-08-16T03:43:40;21.00;99.90
66422;DHT22;53228;51.380;0.098;2022-08-16T03:46:21;20.40;99.90
66422;DHT22;53228;51.380;0.098;2022-08-16T03:49:12;20.40;99.90
66422;DHT22;53228;51.380;0.098;2022-08-16T03:51:44;20.40;99.90
66422;DHT22;53228;51.380;0.098;2022-08-16T03:54:21;20.40;99.90
66422;DHT22;53228;51.380;0.098;2022-08-16T03:56:51;20.30;99.90
66422;DHT22;53228;51.380;0.098;2022-08-16T03:59:29;20.30;99.90
66422;DHT22;53228;51.380;0.098;2022-08-16T04:07:08;20.30;99.90
66422;DHT22;53228;51.380;0.098;2022-08-16T04:12:10;20.20;99.90
66422;DHT22;53228;51.380;0.098;2022-08-16T04:14:59;20.20;99.90
66422;DHT22;53228;51.380;0.098;2022-08-16T04:20:06;20.10;99.90
66422;DHT22;53228;51.380;0.098;2022-08-16T04:22:56;20.10;99.90
66422;DHT22;53228;51.380;0.098;2022-08-16T04:25:28;20.70;99.90
66422;DHT22;53228;51.380;0.098;2022-08-16T04:27:56;20.10;99.90
66422;DHT22;53228;51.380;0.098;2022-08-16T04:33:19;20.00;99.90
66422;DHT22;53228;51.380;0.098;2022-08-16T04:40:58;20.00;99.90
66422;DHT22;53228;51.380;0.098;2022-08-16T04:48:35;20.00;99.90
66422;DHT22;53228;51.380;0.098;2022-08-16T04:51:10;20.00;99.90
66422;DHT22;53228;51.380;0.098;2022-08-16T04:56:28;20.00;99.90
66422;DHT22;53228;51.380;0.098;2022-08-16T04:58:56;20.00;99.90
66422;DHT22;53228;51.380;0.098;2022-08-16T05:06:47;20.00;99.90
66422;DHT22;53228;51.380;0.098;2022-08-16T05:09:38;20.00;99.90
66422;DHT22;53228;51.380;0.098;2022-08-16T05:20:07;20.10;99.90
66422;DHT22;53228;51.380;0.098;2022-08-16T05:25:28;20.10;99.90
66422;DHT22;53228;51.380;0.098;2022-08-16T05:28:16;20.10;99.90
66422;DHT22;53228;51.380;0.098;2022-08-16T05:33:33;20.10;99.90
66422;DHT22;53228;51.380;0.098;2022-08-16T05:38:46;20.10;99.90
66422;DHT22;53228;51.380;0.098;2022-08-16T05:41:18;20.10;99.90
66422;DHT22;53228;51.380;0.098;2022-08-16T05:43:49;20.10;99.90
66422;DHT22;53228;51.380;0.098;2022-08-16T05:46:34;20.10;99.90
66422;DHT22;53228;51.380;0.098;2022-08-16T05:51:52;20.10;99.90
66422;DHT22;53228;51.380;0.098;2022-08-16T05:54:25;20.20;99.90
66422;DHT22;53228;51.380;0.098;2022-08-16T05:56:58;20.20;99.90
66422;DHT22;53228;51.380;0.098;2022-08-16T05:59:27;20.20;99.90
66422;DHT22;53228;51.380;0.098;2022-08-16T06:04:30;20.30;99.90
66422;DHT22;53228;51.380;0.098;2022-08-16T06:07:08;20.30;99.90
66422;DHT22;53228;51.380;0.098;2022-08-16T06:12:30;20.40;99.90
66422;DHT22;53228;51.380;0.098;2022-08-16T06:15:10;20.50;99.90
66422;DHT22;53228;51.380;0.098;2022-08-16T06:17:45;20.50;99.90
66422;DHT22;53228;51.380;0.098;2022-08-16T06:20:24;20.50;99.90
66422;DHT22;53228;51.380;0.098;2022-08-16T06:31:05;20.80;99.90
66422;DHT22;53228;51.380;0.098;2022-08-16T06:36:14;20.90;99.90
66422;DHT22;53228;51.380;0.098;2022-08-16T06:41:48;20.90;99.90
66422;DHT22;53228;51.380;0.098;2022-08-16T06:44:46;20.90;99.90
66422;DHT22;53228;51.380;0.098;2022-08-16T06:47:34;20.90;99.90
66422;DHT22;53228;51.380;0.098;2022-08-16T06:50:22;21.00;99.90
66422;DHT22;53228;51.380;0.098;2022-08-16T06:52:58;20.90;99.90
66422;DHT22;53228;51.380;0.098;2022-08-16T06:55:45;20.90;99.90
66422;DHT22;53228;51.380;0.098;2022-08-16T06:58:21;20.90;99.90
66422;DHT22;53228;51.380;0.098;2022-08-16T07:01:09;20.90;99.90
66422;DHT22;53228;51.380;0.098;2022-08-16T07:03:49;21.00;99.90
66422;DHT22;53228;51.380;0.098;2022-08-16T07:06:29;21.00;99.90
66422;DHT22;53228;51.380;0.098;2022-08-16T07:09:01;21.00;99.90
66422;DHT22;53228;51.380;0.098;2022-08-16T07:11:40;21.10;99.90
66422;DHT22;53228;51.380;0.098;2022-08-16T07:16:56;21.10;99.90
66422;DHT22;53228;51.380;0.098;2022-08-16T07:19:28;21.20;99.90
66422;DHT22;53228;51.380;0.098;2022-08-16T07:25:14;21.30;99.90
66422;DHT22;53228;51.380;0.098;2022-08-16T07:27:45;21.30;99.90
66422;DHT22;53228;51.380;0.098;2022-08-16T07:30:17;21.40;99.90
66422;DHT22;53228;51.380;0.098;2022-08-16T07:35:38;21.40;99.90
66422;DHT22;53228;51.380;0.098;2022-08-16T07:40:56;21.50;99.90
66422;DHT22;53228;51.380;0.098;2022-08-16T07:43:31;21.60;99.90
66422;DHT22;53228;51.380;0.098;2022-08-16T07:46:04;21.70;99.90
66422;DHT22;53228;51.380;0.098;2022-08-16T07:48:54;21.80;99.90
66422;DHT22;53228;51.380;0.098;2022-08-16T07:54:05;22.10;99.90
66422;DHT22;53228;51.380;0.098;2022-08-16T08:01:41;22.20;99.90
66422;DHT22;53228;51.380;0.098;2022-08-16T08:04:09;22.10;99.90
66422;DHT22;53228;51.380;0.098;2022-08-16T08:09:16;22.30;99.90
66422;DHT22;53228;51.380;0.098;2022-08-16T08:11:45;22.30;99.90
66422;DHT22;53228;51.380;0.098;2022-08-16T08:14:32;22.30;99.90
66422;DHT22;53228;51.380;0.098;2022-08-16T08:24:53;22.40;99.90
66422;DHT22;53228;51.380;0.098;2022-08-16T08:27:26;22.40;99.90
66422;DHT22;53228;51.380;0.098;2022-08-16T08:30:01;22.40;99.90
66422;DHT22;53228;51.380;0.098;2022-08-16T08:35:31;22.30;99.90
66422;DHT22;53228;51.380;0.098;2022-08-16T08:38:03;22.30;99.90
66422;DHT22;53228;51.380;0.098;2022-08-16T08:40:38;22.30;99.90
66422;DHT22;53228;51.380;0.098;2022-08-16T08:43:09;22.30;99.90
66422;DHT22;53228;51.380;0.098;2022-08-16T08:45:56;22.30;99.90
66422;DHT22;53228;51.380;0.098;2022-08-16T08:48:25;22.30;99.90
66422;DHT22;53228;51.380;0.098;2022-08-16T08:53:51;22.20;99.90
66422;DHT22;53228;51.380;0.098;2022-08-16T08:56:26;22.20;99.90
66422;DHT22;53228;51.380;0.098;2022-08-16T08:59:20;22.10;99.90
66422;DHT22;53228;51.380;0.098;2022-08-16T09:01:51;22.10;99.90
66422;DHT22;53228;51.380;0.098;2022-08-16T09:04:27;22.10;99.90
66422;DHT22;53228;51.380;0.098;2022-08-16T09:12:03;22.20;99.90
66422;DHT22;53228;51.380;0.098;2022-08-16T09:14:53;22.20;99.90
66422;DHT22;53228;51.380;0.098;2022-08-16T09:17:27;22.10;99.90
66422;DHT22;53228;51.380;0.098;2022-08-16T09:22:50;22.10;99.90
66422;DHT22;53228;51.380;0.098;2022-08-16T09:33:13;21.80;99.90
66422;DHT22;53228;51.380;0.098;2022-08-16T09:35:48;21.80;99.90
66422;DHT22;53228;51.380;0.098;2022-08-16T09:38:22;21.70;99.90
66422;DHT22;53228;51.380;0.098;2022-08-16T09:41:00;21.70;99.90
66422;DHT22;53228;51.380;0.098;2022-08-16T09:43:29;21.60;99.90
66422;DHT22;53228;51.380;0.098;2022-08-16T09:46:17;21.50;99.90
66422;DHT22;53228;51.380;0.098;2022-08-16T09:49:06;21.50;99.90
66422;DHT22;53228;51.380;0.098;2022-08-16T09:54:05;21.40;99.90
66422;DHT22;53228;51.380;0.098;2022-08-16T09:56:37;21.40;99.90
66422;DHT22;53228;51.380;0.098;2022-08-16T09:59:21;21.50;99.90
66422;DHT22;53228;51.380;0.098;2022-08-16T10:01:50;21.50;99.90
66422;DHT22;53228;51.380;0.098;2022-08-16T10:04:19;21.50;99.90
66422;DHT22;53228;51.380;0.098;2022-08-16T10:07:04;21.50;99.90
66422;DHT22;53228;51.380;0.098;2022-08-16T10:09:45;21.40;99.90
66422;DHT22;53228;51.380;0.098;2022-08-16T10:12:27;21.30;99.90
66422;DHT22;53228;51.380;0.098;2022-08-16T10:15:24;21.20;99.90
66422;DHT22;53228;51.380;0.098;2022-08-16T10:17:57;21.20;99.90
66422;DHT22;53228;51.380;0.098;2022-08-16T10:20:31;20.40;99.90
66422;DHT22;53228;51.380;0.098;2022-08-16T10:23:13;21.00;99.90
66422;DHT22;53228;51.380;0.098;2022-08-16T10:25:45;21.00;99.90
66422;DHT22;53228;51.380;0.098;2022-08-16T10:28:32;20.90;99.90
66422;DHT22;53228;51.380;0.098;2022-08-16T10:31:09;20.90;99.90
66422;DHT22;53228;51.380;0.098;2022-08-16T10:33:44;20.80;99.90
66422;DHT22;53228;51.380;0.098;2022-08-16T10:36:13;20.80;99.90
66422;DHT22;53228;51.380;0.098;2022-08-16T10:39:03;20.70;99.90
66422;DHT22;53228;51.380;0.098;2022-08-16T10:41:35;20.70;99.90
66422;DHT22;53228;51.380;0.098;2022-08-16T10:46:36;20.60;99.90
66422;DHT22;53228;51.380;0.098;2022-08-16T10:49:10;20.50;99.90
66422;DHT22;53228;51.380;0.098;2022-08-16T10:51:38;20.50;99.90
66422;DHT22;53228;51.380;0.098;2022-08-16T10:57:02;20.20;99.90
66422;DHT22;53228;51.380;0.098;2022-08-16T10:59:38;20.30;99.90
66422;DHT22;53228;51.380;0.098;2022-08-16T11:02:20;20.10;99.90
66422;DHT22;53228;51.380;0.098;2022-08-16T11:05:12;20.10;99.90
66422;DHT22;53228;51.380;0.098;2022-08-16T11:07:44;20.10;99.90
66422;DHT22;53228;51.380;0.098;2022-08-16T11:10:35;20.10;99.90
66422;DHT22;53228;51.380;0.098;2022-08-16T11:13:25;20.10;99.90
66422;DHT22;53228;51.380;0.098;2022-08-16T11:16:13;20.00;99.90
66422;DHT22;53228;51.380;0.098;2022-08-16T11:19:03;19.90;99.90
66422;DHT22;53228;51.380;0.098;2022-08-16T11:21:42;19.90;99.90
66422;DHT22;53228;51.380;0.098;2022-08-16T11:24:31;19.90;99.90
66422;DHT22;53228;51.380;0.098;2022-08-16T11:27:14;19.80;99.90
66422;DHT22;53228;51.380;0.098;2022-08-16T11:29:49;19.80;99.90
66422;DHT22;53228;51.380;0.098;2022-08-16T11:34:57;19.60;99.90
66422;DHT22;53228;51.380;0.098;2022-08-16T11:37:47;19.60;99.90
66422;DHT22;53228;51.380;0.098;2022-08-16T11:40:46;19.70;99.90
66422;DHT22;53228;51.380;0.098;2022-08-16T11:43:20;19.70;99.90
66422;DHT22;53228;51.380;0.098;2022-08-16T11:45:54;20.10;99.90
66422;DHT22;53228;51.380;0.098;2022-08-16T11:48:28;20.30;99.90
66422;DHT22;53228;51.380;0.098;2022-08-16T11:56:12;20.70;99.90
66422;DHT22;53228;51.380;0.098;2022-08-16T12:06:27;21.30;99.90
66422;DHT22;53228;51.380;0.098;2022-08-16T12:11:29;21.80;99.90
66422;DHT22;53228;51.380;0.098;2022-08-16T12:14:01;21.80;99.90
66422;DHT22;53228;51.380;0.098;2022-08-16T12:16:34;21.90;99.90
66422;DHT22;53228;51.380;0.098;2022-08-16T12:19:06;21.90;99.90
66422;DHT22;53228;51.380;0.098;2022-08-16T12:24:26;22.00;99.90
66422;DHT22;53228;51.380;0.098;2022-08-16T12:26:56;22.00;99.90
66422;DHT22;53228;51.380;0.098;2022-08-16T12:29:27;22.20;99.90
66422;DHT22;53228;51.380;0.098;2022-08-16T12:37:21;22.20;99.90
66422;DHT22;53228;51.380;0.098;2022-08-16T12:39:53;22.20;99.90
66422;DHT22;53228;51.380;0.098;2022-08-16T12:42:25;22.30;99.90
66422;DHT22;53228;51.380;0.098;2022-08-16T12:45:03;22.40;99.90
66422;DHT22;53228;51.380;0.098;2022-08-16T12:50:43;22.50;99.90
66422;DHT22;53228;51.380;0.098;2022-08-16T12:53:17;22.60;99.90
66422;DHT22;53228;51.380;0.098;2022-08-16T12:55:49;22.60;99.90
66422;DHT22;53228;51.380;0.098;2022-08-16T12:58:20;22.60;99.90
66422;DHT22;53228;51.380;0.098;2022-08-16T13:01:09;22.70;99.90
66422;DHT22;53228;51.380;0.098;2022-08-16T13:08:39;22.70;99.90
66422;DHT22;53228;51.380;0.098;2022-08-16T13:11:07;22.70;99.90
66422;DHT22;53228;51.380;0.098;2022-08-16T13:13:35;22.70;99.90
66422;DHT22;53228;51.380;0.098;2022-08-16T13:16:04;22.60;99.90
66422;DHT22;53228;51.380;0.098;2022-08-16T13:18:52;22.60;99.90
66422;DHT22;53228;51.380;0.098;2022-08-16T13:23:51;22.50;99.90
66422;DHT22;53228;51.380;0.098;2022-08-16T13:26:23;22.40;99.90
66422;DHT22;53228;51.380;0.098;2022-08-16T13:33:50;22.20;99.90
66422;DHT22;53228;51.380;0.098;2022-08-16T13:36:24;22.30;99.90
66422;DHT22;53228;51.380;0.098;2022-08-16T13:39:13;22.30;99.90
66422;DHT22;53228;51.380;0.098;2022-08-16T13:47:08;22.60;99.90
66422;DHT22;53228;51.380;0.098;2022-08-16T13:49:39;22.70;99.90
66422;DHT22;53228;51.380;0.098;2022-08-16T13:52:10;22.70;99.90
66422;DHT22;53228;51.380;0.098;2022-08-16T13:54:39;22.70;99.90
66422;DHT22;53228;51.380;0.098;2022-08-16T13:57:08;22.70;99.90
66422;DHT22;53228;51.380;0.098;2022-08-16T13:59:38;22.90;99.90
66422;DHT22;53228;51.380;0.098;2022-08-16T14:02:09;23.00;99.90
66422;DHT22;53228;51.380;0.098;2022-08-16T14:04:39;23.30;99.90
66422;DHT22;53228;51.380;0.098;2022-08-16T14:07:12;23.60;99.90
66422;DHT22;53228;51.380;0.098;2022-08-16T14:09:51;24.00;99.90
66422;DHT22;53228;51.380;0.098;2022-08-16T14:12:28;24.00;99.90
66422;DHT22;53228;51.380;0.098;2022-08-16T14:14:57;24.00;99.90
66422;DHT22;53228;51.380;0.098;2022-08-16T14:17:26;23.80;99.90
66422;DHT22;53228;51.380;0.098;2022-08-16T14:19:57;23.70;99.90
66422;DHT22;53228;51.380;0.098;2022-08-16T14:22:32;23.40;99.90
66422;DHT22;53228;51.380;0.098;2022-08-16T14:25:07;23.50;99.90
66422;DHT22;53228;51.380;0.098;2022-08-16T14:27:37;23.40;99.90
66422;DHT22;53228;51.380;0.098;2022-08-16T14:30:11;23.40;99.90
66422;DHT22;53228;51.380;0.098;2022-08-16T14:32:43;23.30;99.90
66422;DHT22;53228;51.380;0.098;2022-08-16T14:35:20;23.20;99.90
66422;DHT22;53228;51.380;0.098;2022-08-16T14:38:04;23.00;99.90
66422;DHT22;53228;51.380;0.098;2022-08-16T14:40:33;22.90;99.90
66422;DHT22;53228;51.380;0.098;2022-08-16T14:43:02;22.90;99.90
66422;DHT22;53228;51.380;0.098;2022-08-16T14:45:33;22.80;99.90
66422;DHT22;53228;51.380;0.098;2022-08-16T14:53:07;22.80;99.90
66422;DHT22;53228;51.380;0.098;2022-08-16T14:55:37;22.80;99.90
66422;DHT22;53228;51.380;0.098;2022-08-16T14:58:07;22.80;99.90
66422;DHT22;53228;51.380;0.098;2022-08-16T15:00:46;22.70;99.90
66422;DHT22;53228;51.380;0.098;2022-08-16T15:03:18;22.70;99.90
66422;DHT22;53228;51.380;0.098;2022-08-16T15:05:49;22.80;99.90
66422;DHT22;53228;51.380;0.098;2022-08-16T15:08:20;22.80;99.90
66422;DHT22;53228;51.380;0.098;2022-08-16T15:11:04;22.80;99.90
66422;DHT22;53228;51.380;0.098;2022-08-16T15:21:05;22.80;99.90
66422;DHT22;53228;51.380;0.098;2022-08-16T15:23:35;22.80;99.90
66422;DHT22;53228;51.380;0.098;2022-08-16T15:31:25;22.70;99.90
66422;DHT22;53228;51.380;0.098;2022-08-16T15:33:54;22.60;99.90
66422;DHT22;53228;51.380;0.098;2022-08-16T15:38:55;22.50;99.90
66422;DHT22;53228;51.380;0.098;2022-08-16T15:44:17;22.40;99.90
66422;DHT22;53228;51.380;0.098;2022-08-16T15:46:50;22.40;99.90
66422;DHT22;53228;51.380;0.098;2022-08-16T15:49:22;22.40;99.90
66422;DHT22;53228;51.380;0.098;2022-08-16T15:52:02;22.40;99.90
66422;DHT22;53228;51.380;0.098;2022-08-16T15:54:30;22.30;99.90
66422;DHT22;53228;51.380;0.098;2022-08-16T15:57:00;22.30;99.90
66422;DHT22;53228;51.380;0.098;2022-08-16T15:59:42;22.20;99.90
66422;DHT22;53228;51.380;0.098;2022-08-16T16:02:20;22.10;99.90
66422;DHT22;53228;51.380;0.098;2022-08-16T16:04:59;22.10;99.90
66422;DHT22;53228;51.380;0.098;2022-08-16T16:07:29;22.10;99.90
66422;DHT22;53228;51.380;0.098;2022-08-16T16:10:02;22.70;99.90
66422;DHT22;53228;51.380;0.098;2022-08-16T16:15:25;22.10;99.90
66422;DHT22;53228;51.380;0.098;2022-08-16T16:17:56;22.00;99.90
66422;DHT22;53228;51.380;0.098;2022-08-16T16:20:36;22.00;99.90
66422;DHT22;53228;51.380;0.098;2022-08-16T16:23:06;22.00;99.90
66422;DHT22;53228;51.380;0.098;2022-08-16T16:25:41;22.00;99.90
66422;DHT22;53228;51.380;0.098;2022-08-16T16:28:16;22.00;99.90
66422;DHT22;53228;51.380;0.098;2022-08-16T16:31:10;22.10;99.90
66422;DHT22;53228;51.380;0.098;2022-08-16T16:33:40;22.10;99.90
66422;DHT22;53228;51.380;0.098;2022-08-16T16:36:18;22.10;99.90
66422;DHT22;53228;51.380;0.098;2022-08-16T16:41:23;22.20;99.90
66422;DHT22;53228;51.380;0.098;2022-08-16T16:43:54;22.30;99.90
66422;DHT22;53228;51.380;0.098;2022-08-16T16:46:25;22.80;99.90
66422;DHT22;53228;51.380;0.098;2022-08-16T16:49:11;22.40;99.90
66422;DHT22;53228;51.380;0.098;2022-08-16T16:54:16;22.50;99.90
66422;DHT22;53228;51.380;0.098;2022-08-16T16:56:56;22.50;99.90
66422;DHT22;53228;51.380;0.098;2022-08-16T16:59:25;22.40;99.90
66422;DHT22;53228;51.380;0.098;2022-08-16T17:01:56;22.40;99.90
66422;DHT22;53228;51.380;0.098;2022-08-16T17:04:46;22.30;99.90
66422;DHT22;53228;51.380;0.098;2022-08-16T17:07:15;22.30;99.90
66422;DHT22;53228;51.380;0.098;2022-08-16T17:09:43;22.30;99.90
66422;DHT22;53228;51.380;0.098;2022-08-16T17:12:13;22.40;99.90
66422;DHT22;53228;51.380;0.098;2022-08-16T17:15:03;22.50;99.90
66422;DHT22;53228;51.380;0.098;2022-08-16T17:20:25;22.40;99.90
66422;DHT22;53228;51.380;0.098;2022-08-16T17:22:54;22.40;99.90
66422;DHT22;53228;51.380;0.098;2022-08-16T17:25:23;22.30;99.90
66422;DHT22;53228;51.380;0.098;2022-08-16T17:30:52;22.10;99.90
66422;DHT22;53228;51.380;0.098;2022-08-16T17:35:49;21.90;99.90
66422;DHT22;53228;51.380;0.098;2022-08-16T17:38:24;21.90;99.90
66422;DHT22;53228;51.380;0.098;2022-08-16T17:43:40;21.90;99.90
66422;DHT22;53228;51.380;0.098;2022-08-16T17:46:12;21.90;99.90
66422;DHT22;53228;51.380;0.098;2022-08-16T17:49:01;22.00;99.90
66422;DHT22;53228;51.380;0.098;2022-08-16T17:51:29;22.00;99.90
66422;DHT22;53228;51.380;0.098;2022-08-16T17:53:57;22.20;99.90
66422;DHT22;53228;51.380;0.098;2022-08-16T17:56:25;22.10;99.90
66422;DHT22;53228;51.380;0.098;2022-08-16T17:58:52;22.20;99.90
66422;DHT22;53228;51.380;0.098;2022-08-16T18:01:23;22.20;99.90
66422;DHT22;53228;51.380;0.098;2022-08-16T18:03:52;22.20;99.90
66422;DHT22;53228;51.380;0.098;2022-08-16T18:06:37;22.20;99.90
66422;DHT22;53228;51.380;0.098;2022-08-16T18:09:07;22.20;99.90
66422;DHT22;53228;51.380;0.098;2022-08-16T18:11:37;22.10;99.90
66422;DHT22;53228;51.380;0.098;2022-08-16T18:14:08;22.10;99.90
66422;DHT22;53228;51.380;0.098;2022-08-16T18:24:23;21.80;99.90
66422;DHT22;53228;51.380;0.098;2022-08-16T18:26:52;21.70;99.90
66422;DHT22;53228;51.380;0.098;2022-08-16T18:29:20;21.60;99.90
66422;DHT22;53228;51.380;0.098;2022-08-16T18:31:48;21.50;99.90
66422;DHT22;53228;51.380;0.098;2022-08-16T18:34:18;21.50;99.90
66422;DHT22;53228;51.380;0.098;2022-08-16T18:36:49;21.40;99.90
66422;DHT22;53228;51.380;0.098;2022-08-16T18:39:18;21.30;99.90
66422;DHT22;53228;51.380;0.098;2022-08-16T18:41:46;21.30;99.90
66422;DHT22;53228;51.380;0.098;2022-08-16T18:44:14;21.20;99.90
66422;DHT22;53228;51.380;0.098;2022-08-16T18:46:54;21.20;99.90
66422;DHT22;53228;51.380;0.098;2022-08-16T18:49:22;21.10;99.90
66422;DHT22;53228;51.380;0.098;2022-08-16T18:51:57;21.10;99.90
66422;DHT22;53228;51.380;0.098;2022-08-16T18:54:28;20.90;99.90
66422;DHT22;53228;51.380;0.098;2022-08-16T18:56:58;20.90;99.90
66422;DHT22;53228;51.380;0.098;2022-08-16T18:59:30;20.80;99.90
66422;DHT22;53228;51.380;0.098;2022-08-16T19:02:00;20.80;99.90
66422;DHT22;53228;51.380;0.098;2022-08-16T19:04:36;20.80;99.90
66422;DHT22;53228;51.380;0.098;2022-08-16T19:07:24;20.70;99.90
66422;DHT22;53228;51.380;0.098;2022-08-16T19:09:59;20.60;99.90
66422;DHT22;53228;51.380;0.098;2022-08-16T19:12:30;20.60;99.90
66422;DHT22;53228;51.380;0.098;2022-08-16T19:15:16;20.60;99.90
66422;DHT22;53228;51.380;0.098;2022-08-16T19:17:47;20.50;99.90
66422;DHT22;53228;51.380;0.098;2022-08-16T19:20:17;20.50;99.90
66422;DHT22;53228;51.380;0.098;2022-08-16T19:22:47;20.40;99.90
66422;DHT22;53228;51.380;0.098;2022-08-16T19:25:36;20.40;99.90
66422;DHT22;53228;51.380;0.098;2022-08-16T19:28:20;20.20;99.90
66422;DHT22;53228;51.380;0.098;2022-08-16T19:31:11;20.30;99.90
66422;DHT22;53228;51.380;0.098;2022-08-16T19:33:41;20.20;99.90
66422;DHT22;53228;51.380;0.098;2022-08-16T19:36:33;20.10;99.90
66422;DHT22;53228;51.380;0.098;2022-08-16T19:39:09;20.10;99.90
66422;DHT22;53228;51.380;0.098;2022-08-16T19:41:40;20.00;99.90
66422;DHT22;53228;51.380;0.098;2022-08-16T19:44:09;20.00;99.90
66422;DHT22;53228;51.380;0.098;2022-08-16T19:49:12;20.00;99.90
66422;DHT22;53228;51.380;0.098;2022-08-16T19:54:15;19.20;99.90
66422;DHT22;53228;51.380;0.098;2022-08-16T19:56:43;19.90;99.90
66422;DHT22;53228;51.380;0.098;2022-08-16T19:59:11;19.90;99.90
66422;DHT22;53228;51.380;0.098;2022-08-16T20:32:09;20.20;99.90
66422;DHT22;53228;51.380;0.098;2022-08-16T20:34:39;20.20;99.90
66422;DHT22;53228;51.380;0.098;2022-08-16T20:39:46;20.10;99.90
66422;DHT22;53228;51.380;0.098;2022-08-16T20:42:18;20.10;99.90
66422;DHT22;53228;51.380;0.098;2022-08-16T20:44:47;20.10;99.90
66422;DHT22;53228;51.380;0.098;2022-08-16T20:47:15;20.10;99.90
66422;DHT22;53228;51.380;0.098;2022-08-16T20:54:44;20.10;99.90
66422;DHT22;53228;51.380;0.098;2022-08-16T20:57:13;20.10;99.90
66422;DHT22;53228;51.380;0.098;2022-08-16T20:59:41;20.10;99.90
66422;DHT22;53228;51.380;0.098;2022-08-16T21:02:23;20.10;99.90
66422;DHT22;53228;51.380;0.098;2022-08-16T21:04:53;20.00;99.90